createdAt,value
2019-01-11T00:00:50.373Z,2.0
2019-01-11T00:02:50.216Z,1.8
2019-01-11T00:04:50.462Z,1.7
2019-01-11T00:06:50.490Z,1.7
2019-01-11T00:08:50.350Z,2.0
2019-01-11T00:10:50.125Z,2.0
2019-01-11T00:12:49.968Z,1.8
2019-01-11T00:14:49.793Z,1.8
2019-01-11T00:16:49.871Z,1.9
2019-01-11T00:18:49.770Z,1.8
2019-01-11T00:20:49.650Z,1.8
2019-01-11T00:22:50.464Z,2.0
2019-01-11T00:24:50.320Z,2.1
2019-01-11T00:26:50.416Z,1.8
2019-01-11T00:28:50.277Z,1.8
2019-01-11T00:30:50.152Z,2.0
2019-01-11T00:32:49.997Z,1.8
2019-01-11T00:34:50.119Z,2.0
2019-01-11T00:36:50.131Z,2.0
2019-01-11T00:38:49.985Z,2.0
2019-01-11T00:40:49.767Z,2.1
2019-01-11T00:42:49.737Z,1.7
2019-01-11T00:44:49.520Z,1.8
2019-01-11T00:46:49.705Z,1.8
2019-01-11T00:48:49.567Z,1.9
2019-01-11T00:50:50.418Z,2.1
2019-01-11T00:52:50.190Z,2.2
2019-01-11T00:54:50.064Z,2.0
2019-01-11T00:56:50.103Z,2.0
2019-01-11T00:58:49.963Z,2.1
2019-01-11T01:00:49.748Z,2.1
2019-01-11T01:02:49.558Z,1.9
2019-01-11T01:04:49.756Z,2.0
2019-01-11T01:06:49.778Z,2.0
2019-01-11T01:08:49.684Z,1.9
2019-01-11T01:10:49.588Z,2.1
2019-01-11T01:12:50.487Z,2.1
2019-01-11T01:14:50.295Z,2.1
2019-01-11T01:16:50.343Z,2.0
2019-01-11T01:18:50.240Z,1.9
2019-01-11T01:20:50.131Z,2.1
2019-01-11T01:22:49.944Z,2.0
2019-01-11T01:24:49.781Z,2.0
2019-01-11T01:26:49.787Z,2.2
2019-01-11T01:28:49.632Z,2.1
2019-01-11T01:30:49.556Z,2.0
2019-01-11T01:32:50.481Z,2.1
2019-01-11T01:34:50.502Z,2.1
2019-01-11T01:36:50.542Z,2.1
2019-01-11T01:38:50.306Z,2.2
2019-01-11T01:40:50.101Z,2.2
2019-01-11T01:42:49.980Z,2.2
2019-01-11T01:44:49.788Z,2.0
2019-01-11T01:46:49.779Z,2.0
2019-01-11T01:48:49.622Z,2.0
2019-01-11T01:50:49.541Z,2.1
2019-01-11T01:52:50.317Z,1.9
2019-01-11T01:54:51.235Z,1.9
2019-01-11T01:56:50.259Z,1.8
2019-01-11T01:58:50.007Z,1.9
2019-01-11T02:00:49.851Z,1.9
2019-01-11T02:02:49.659Z,1.9
2019-01-11T02:04:50.024Z,2.0
2019-01-11T02:06:50.072Z,1.9
2019-01-11T02:08:49.853Z,2.2
2019-01-11T02:10:49.690Z,2.2
2019-01-11T02:12:50.526Z,1.9
2019-01-11T02:14:50.412Z,1.9
2019-01-11T02:16:50.506Z,2.4
2019-01-11T02:18:50.359Z,2.3
2019-01-11T02:20:50.228Z,2.3
2019-01-11T02:22:50.206Z,2.1
2019-01-11T02:24:50.106Z,2.1
2019-01-11T02:26:50.163Z,2.1
2019-01-11T02:28:50.023Z,2.3
2019-01-11T02:30:49.852Z,2.4
2019-01-11T02:32:53.379Z,2.4
2019-01-11T02:34:49.692Z,2.2
2019-01-11T02:36:49.846Z,2.2
2019-01-11T02:38:49.685Z,2.4
2019-01-11T02:40:49.660Z,2.3
2019-01-11T02:42:49.554Z,2.3
2019-01-11T02:44:50.457Z,1.9
2019-01-11T02:46:50.431Z,2.1
2019-01-11T02:48:50.236Z,2.1
2019-01-11T02:50:50.091Z,2.3
2019-01-11T02:52:49.972Z,2.3
2019-01-11T02:54:49.754Z,2.3
2019-01-11T02:56:49.952Z,2.5
2019-01-11T02:58:49.766Z,2.5
2019-01-11T03:00:49.622Z,2.4
2019-01-11T03:02:50.488Z,2.2
2019-01-11T03:04:49.777Z,2.3
2019-01-11T03:06:49.822Z,2.3
2019-01-11T03:08:50.243Z,2.6
2019-01-11T03:10:51.843Z,2.5
2019-01-11T03:12:49.634Z,2.5
2019-01-11T03:14:49.524Z,2.4
2019-01-11T03:16:49.556Z,2.6
2019-01-11T03:18:50.385Z,2.5
2019-01-11T03:20:50.288Z,2.5
2019-01-11T03:22:50.115Z,2.6
2019-01-11T03:24:49.924Z,2.6
2019-01-11T03:26:49.984Z,2.8
2019-01-11T03:28:49.756Z,2.8
2019-01-11T03:30:49.674Z,2.8
2019-01-11T03:32:49.604Z,2.7
2019-01-11T03:34:50.806Z,2.7
2019-01-11T03:36:49.986Z,2.9
2019-01-11T03:38:49.875Z,3.0
2019-01-11T03:40:49.672Z,3.0
2019-01-11T03:42:49.551Z,2.8
2019-01-11T03:44:50.507Z,2.6
2019-01-11T03:46:49.667Z,2.9
2019-01-11T03:48:49.541Z,3.3
2019-01-11T03:50:50.519Z,3.3
2019-01-11T03:52:50.399Z,3.0
2019-01-11T03:54:50.157Z,3.1
2019-01-11T03:56:50.231Z,3.1
2019-01-11T03:58:50.023Z,3.1
2019-01-11T04:00:49.920Z,3.1
2019-01-11T04:02:49.815Z,2.8
2019-01-11T04:04:49.970Z,3.3
2019-01-11T04:06:50.004Z,3.2
2019-01-11T04:08:49.936Z,3.2
2019-01-11T04:10:49.812Z,3.3
2019-01-11T04:12:49.699Z,3.2
2019-01-11T04:14:49.658Z,3.2
2019-01-11T04:16:49.821Z,3.2
2019-01-11T04:18:49.713Z,3.4
2019-01-11T04:20:49.542Z,3.4
2019-01-11T04:22:50.362Z,3.2
2019-01-11T04:24:50.208Z,3.4
2019-01-11T04:26:50.234Z,3.5
2019-01-11T04:28:50.155Z,3.5
2019-01-11T04:30:49.980Z,3.5
2019-01-11T04:32:49.823Z,3.4
2019-01-11T04:34:50.102Z,3.3
2019-01-11T04:36:50.077Z,3.7
2019-01-11T04:38:49.955Z,3.7
2019-01-11T04:40:49.819Z,3.3
2019-01-11T04:42:49.732Z,3.7
2019-01-11T04:44:49.669Z,3.8
2019-01-11T04:46:49.705Z,3.8
2019-01-11T04:48:49.552Z,3.7
2019-01-11T04:50:50.425Z,3.6
2019-01-11T04:52:50.259Z,3.7
2019-01-11T04:54:50.127Z,3.7
2019-01-11T04:56:50.200Z,4.5
2019-01-11T04:58:50.003Z,4.5
2019-01-11T05:00:49.835Z,3.8
2019-01-11T05:02:49.648Z,4.1
2019-01-11T05:04:49.855Z,4.3
2019-01-11T05:06:49.954Z,4.3
2019-01-11T05:08:49.767Z,4.6
2019-01-11T05:10:49.642Z,4.1
2019-01-11T05:12:50.430Z,4.6
2019-01-11T05:14:50.375Z,4.6
2019-01-11T05:16:50.358Z,4.6
2019-01-11T05:18:50.186Z,4.4
2019-01-11T05:20:50.072Z,4.6
2019-01-11T05:22:49.975Z,4.6
2019-01-11T05:24:49.805Z,4.8
2019-01-11T05:26:50.400Z,4.8
2019-01-11T05:28:50.196Z,4.6
2019-01-11T05:30:50.059Z,4.6
2019-01-11T05:32:49.882Z,5.0
2019-01-11T05:34:50.075Z,5.0
2019-01-11T05:36:50.156Z,5.1
2019-01-11T05:38:49.939Z,5.2
2019-01-11T05:40:49.699Z,5.5
2019-01-11T05:42:49.610Z,5.6
2019-01-11T05:44:50.359Z,5.7
2019-01-11T05:46:50.406Z,5.7
2019-01-11T05:48:50.216Z,5.6
2019-01-11T05:50:49.986Z,5.6
2019-01-11T05:52:49.819Z,5.5
2019-01-11T05:54:49.692Z,5.5
2019-01-11T05:56:49.787Z,6.1
2019-01-11T05:58:49.733Z,6.3
2019-01-11T06:00:49.542Z,6.8
2019-01-11T06:02:50.355Z,6.8
2019-01-11T06:04:50.556Z,6.8
2019-01-11T06:06:50.109Z,6.7
2019-01-11T06:08:49.987Z,6.7
2019-01-11T06:10:49.878Z,7.1
2019-01-11T06:12:49.712Z,7.1
2019-01-11T06:14:49.615Z,7.2
2019-01-11T06:16:49.690Z,7.6
2019-01-11T06:18:49.529Z,7.4
2019-01-11T06:20:50.441Z,7.5
2019-01-11T06:22:50.269Z,7.5
2019-01-11T06:24:50.165Z,8.5
2019-01-11T06:26:50.235Z,8.7
2019-01-11T06:28:50.057Z,8.4
2019-01-11T06:30:49.806Z,8.3
2019-01-11T06:32:49.702Z,8.3
2019-01-11T06:34:49.977Z,8.4
2019-01-11T06:36:49.815Z,8.8
2019-01-11T06:38:49.631Z,9.0
2019-01-11T06:40:50.470Z,9.3
2019-01-11T06:42:50.351Z,9.3
2019-01-11T06:44:50.114Z,9.1
2019-01-11T06:46:50.168Z,9.2
2019-01-11T06:48:49.967Z,9.2
2019-01-11T06:50:49.780Z,9.2
2019-01-11T06:52:49.645Z,9.2
2019-01-11T06:54:50.492Z,10.0
2019-01-11T06:56:49.543Z,9.6
2019-01-11T06:58:50.431Z,10.7
2019-01-11T07:00:50.244Z,10.5
2019-01-11T07:02:50.051Z,10.5
2019-01-11T07:04:50.197Z,10.7
2019-01-11T07:06:50.284Z,9.0
2019-01-11T07:08:50.061Z,10.5
2019-01-11T07:10:49.945Z,11.0
2019-01-11T07:12:49.730Z,11.0
2019-01-11T07:14:49.605Z,11.4
2019-01-11T07:16:49.653Z,11.9
2019-01-11T07:18:49.523Z,11.8
2019-01-11T07:20:50.335Z,11.8
2019-01-11T07:22:50.258Z,12.8
2019-01-11T07:24:50.071Z,11.7
2019-01-11T07:26:50.172Z,11.1
2019-01-11T07:28:49.968Z,10.4
2019-01-11T07:30:49.787Z,10.8
2019-01-11T07:32:49.654Z,10.8
2019-01-11T07:34:49.748Z,11.5
2019-01-11T07:36:49.936Z,12.2
2019-01-11T07:38:49.797Z,12.7
2019-01-11T07:40:49.600Z,12.7
2019-01-11T07:42:50.452Z,12.1
2019-01-11T07:44:50.226Z,13.0
2019-01-11T07:46:50.352Z,11.5
2019-01-11T07:48:50.093Z,11.5
2019-01-11T07:50:49.884Z,13.5
2019-01-11T07:52:49.866Z,12.8
2019-01-11T07:54:49.895Z,12.7
2019-01-11T07:56:50.165Z,13.6
2019-01-11T07:58:50.002Z,13.3
2019-01-11T08:00:49.830Z,13.3
2019-01-11T08:02:49.735Z,14.1
2019-01-11T08:04:49.974Z,14.7
2019-01-11T08:06:50.019Z,14.7
2019-01-11T08:08:49.845Z,15.0
2019-01-11T08:10:49.717Z,13.9
2019-01-11T08:12:49.731Z,14.8
2019-01-11T08:14:49.626Z,15.6
2019-01-11T08:16:49.670Z,14.8
2019-01-11T08:18:50.485Z,14.8
2019-01-11T08:20:56.469Z,15.7
2019-01-11T08:22:50.367Z,15.8
2019-01-11T08:24:50.294Z,15.4
2019-01-11T08:26:50.310Z,15.4
2019-01-11T08:28:50.190Z,16.1
2019-01-11T08:30:49.956Z,15.3
2019-01-11T08:32:49.802Z,16.2
2019-01-11T08:34:50.177Z,16.2
2019-01-11T08:36:50.258Z,16.1
2019-01-11T08:38:50.027Z,16.1
2019-01-11T08:40:49.866Z,16.7
2019-01-11T08:42:49.672Z,17.8
2019-01-11T08:44:49.585Z,17.1
2019-01-11T08:46:49.623Z,17.2
2019-01-11T08:48:50.493Z,17.2
2019-01-11T08:50:50.253Z,17.1
2019-01-11T08:52:50.191Z,17.9
2019-01-11T08:54:49.946Z,18.9
2019-01-11T08:56:50.041Z,18.3
2019-01-11T08:58:50.875Z,18.3
2019-01-11T09:00:49.772Z,17.5
2019-01-11T09:02:49.574Z,18.7
2019-01-11T09:04:49.801Z,18.6
2019-01-11T09:06:49.824Z,18.6
2019-01-11T09:08:49.709Z,18.3
2019-01-11T09:10:49.524Z,18.7
2019-01-11T09:12:50.381Z,18.3
2019-01-11T09:14:50.146Z,19.6
2019-01-11T09:16:50.141Z,18.8
2019-01-11T09:18:50.069Z,18.8
2019-01-11T09:20:49.710Z,18.8
2019-01-11T09:22:49.521Z,18.7
2019-01-11T09:24:49.530Z,18.5
2019-01-11T09:26:49.651Z,18.5
2019-01-11T09:28:49.512Z,19.4
2019-01-11T09:30:50.309Z,18.2
2019-01-11T09:32:50.198Z,18.3
2019-01-11T09:34:50.261Z,18.3
2019-01-11T09:36:50.289Z,18.4
2019-01-11T09:38:50.168Z,18.0
2019-01-11T09:40:49.947Z,17.7
2019-01-11T09:42:49.753Z,17.7
2019-01-11T09:44:49.552Z,17.7
2019-01-11T09:46:49.568Z,17.1
2019-01-11T09:48:50.379Z,17.4
2019-01-11T09:50:49.794Z,17.4
2019-01-11T09:52:49.732Z,18.3
2019-01-11T09:54:49.660Z,18.3
2019-01-11T09:56:49.850Z,17.6
2019-01-11T09:58:49.685Z,17.4
2019-01-11T10:00:49.530Z,17.4
2019-01-11T10:02:50.447Z,18.3
2019-01-11T10:04:50.533Z,18.3
2019-01-11T10:06:49.714Z,18.5
2019-01-11T10:08:49.857Z,17.7
2019-01-11T10:10:49.709Z,18.5
2019-01-11T10:12:49.544Z,18.5
2019-01-11T10:14:50.359Z,19.2
2019-01-11T10:16:50.313Z,19.2
2019-01-11T10:18:50.148Z,18.4
2019-01-11T10:20:49.933Z,19.0
2019-01-11T10:22:49.731Z,18.5
2019-01-11T10:24:49.543Z,18.5
2019-01-11T10:26:49.563Z,19.0
2019-01-11T10:28:50.527Z,18.6
2019-01-11T10:30:50.499Z,18.0
2019-01-11T10:32:50.277Z,18.0
2019-01-11T10:34:50.510Z,18.3
2019-01-11T10:36:49.755Z,17.9
2019-01-11T10:38:49.633Z,18.0
2019-01-11T10:40:50.554Z,19.7
2019-01-11T10:42:50.371Z,19.7
2019-01-11T10:44:50.118Z,18.4
2019-01-11T10:46:50.347Z,18.4
2019-01-11T10:48:50.165Z,19.0
2019-01-11T10:50:50.022Z,19.6
2019-01-11T10:52:49.883Z,19.6
2019-01-11T10:54:49.832Z,19.1
2019-01-11T10:56:49.902Z,18.2
2019-01-11T10:58:49.767Z,18.2
2019-01-11T11:00:49.540Z,19.1
2019-01-11T11:02:50.381Z,19.1
2019-01-11T11:04:50.446Z,19.4
2019-01-11T11:06:50.497Z,19.3
2019-01-11T11:08:49.555Z,19.8
2019-01-11T11:10:50.472Z,20.3
2019-01-11T11:12:50.354Z,20.3
2019-01-11T11:14:50.254Z,20.4
2019-01-11T11:16:50.210Z,19.9
2019-01-11T11:18:50.034Z,21.0
2019-01-11T11:20:49.816Z,21.0
2019-01-11T11:22:49.636Z,21.1
2019-01-11T11:24:50.501Z,20.7
2019-01-11T11:26:50.518Z,21.9
2019-01-11T11:28:50.304Z,21.9
2019-01-11T11:30:51.201Z,20.5
2019-01-11T11:32:50.092Z,20.7
2019-01-11T11:34:50.320Z,20.5
2019-01-11T11:36:50.245Z,20.5
2019-01-11T11:38:50.034Z,21.1
2019-01-11T11:40:49.876Z,21.1
2019-01-11T11:42:49.691Z,20.2
2019-01-11T11:44:49.538Z,20.3
2019-01-11T11:46:49.598Z,20.7
2019-01-11T11:48:49.600Z,21.9
2019-01-11T11:50:50.431Z,21.9
2019-01-11T11:52:50.277Z,21.7
2019-01-11T11:54:50.056Z,22.3
2019-01-11T11:56:50.090Z,22.7
2019-01-11T11:58:49.971Z,22.7
2019-01-11T12:00:49.754Z,23.2
2019-01-11T12:02:49.592Z,24.0
2019-01-11T12:04:49.798Z,24.8
2019-01-11T12:06:49.904Z,23.8
2019-01-11T12:08:49.703Z,26.0
2019-01-11T12:10:49.655Z,26.0
2019-01-11T12:12:50.483Z,25.3
2019-01-11T12:14:50.279Z,24.4
2019-01-11T12:16:50.504Z,25.6
2019-01-11T12:18:50.306Z,25.6
2019-01-11T12:20:50.119Z,24.6
2019-01-11T12:22:49.947Z,26.6
2019-01-11T12:24:49.785Z,26.8
2019-01-11T12:26:49.794Z,25.0
2019-01-11T12:28:49.615Z,25.0
2019-01-11T12:30:50.473Z,26.6
2019-01-11T12:32:50.387Z,28.3
2019-01-11T12:34:50.502Z,27.9
2019-01-11T12:36:50.468Z,28.7
2019-01-11T12:38:50.358Z,28.7
2019-01-11T12:40:50.167Z,28.6
2019-01-11T12:42:50.031Z,28.6
2019-01-11T12:44:49.851Z,28.1
2019-01-11T12:46:49.946Z,29.2
2019-01-11T12:48:49.845Z,29.2
2019-01-11T12:50:49.756Z,29.4
2019-01-11T12:52:49.927Z,30.5
2019-01-11T12:54:49.972Z,30.6
2019-01-11T12:56:50.501Z,31.5
2019-01-11T12:58:49.557Z,31.5
2019-01-11T13:00:49.624Z,31.6
2019-01-11T13:02:49.558Z,31.7
2019-01-11T13:04:49.638Z,31.6
2019-01-11T13:06:50.309Z,33.5
2019-01-11T13:08:50.112Z,33.5
2019-01-11T13:10:49.901Z,32.5
2019-01-11T13:12:49.686Z,32.3
2019-01-11T13:14:50.495Z,31.9
2019-01-11T13:16:49.549Z,32.0
2019-01-11T13:18:50.402Z,32.0
2019-01-11T13:20:50.137Z,33.4
2019-01-11T13:22:49.958Z,32.4
2019-01-11T13:24:49.798Z,32.0
2019-01-11T13:26:49.893Z,32.0
2019-01-11T13:28:49.795Z,30.7
2019-01-11T13:30:49.557Z,30.4
2019-01-11T13:32:50.458Z,30.6
2019-01-11T13:34:49.545Z,30.8
2019-01-11T13:36:54.105Z,30.8
2019-01-11T13:38:50.076Z,30.3
2019-01-11T13:40:49.936Z,31.6
2019-01-11T13:42:49.754Z,32.2
2019-01-11T13:44:49.613Z,30.4
2019-01-11T13:46:49.657Z,30.4
2019-01-11T13:48:50.471Z,30.0
2019-01-11T13:50:50.231Z,30.4
2019-01-11T13:52:50.032Z,29.9
2019-01-11T13:54:49.850Z,29.9
2019-01-11T13:56:49.930Z,29.9
2019-01-11T13:58:49.687Z,30.0
2019-01-11T14:00:49.611Z,31.0
2019-01-11T14:02:50.346Z,30.8
2019-01-11T14:04:49.540Z,30.8
2019-01-11T14:06:49.542Z,31.1
2019-01-11T14:08:50.387Z,32.1
2019-01-11T14:10:50.210Z,31.5
2019-01-11T14:12:50.028Z,30.9
2019-01-11T14:14:49.827Z,30.9
2019-01-11T14:16:49.885Z,31.8
2019-01-11T14:18:50.227Z,31.8
2019-01-11T14:20:50.005Z,30.9
2019-01-11T14:22:49.805Z,33.0
2019-01-11T14:24:49.646Z,33.0
2019-01-11T14:26:49.660Z,34.8
2019-01-11T14:28:49.528Z,33.9
2019-01-11T14:30:50.287Z,34.7
2019-01-11T14:32:50.159Z,34.7
2019-01-11T14:34:50.314Z,34.2
2019-01-11T14:36:50.487Z,34.1
2019-01-11T14:38:50.323Z,34.4
2019-01-11T14:40:50.204Z,34.7
2019-01-11T14:42:50.069Z,34.7
2019-01-11T14:44:49.885Z,36.4
2019-01-11T14:46:50.110Z,35.5
2019-01-11T14:48:49.927Z,35.9
2019-01-11T14:50:49.742Z,34.7
2019-01-11T14:52:49.846Z,34.7
2019-01-11T14:54:49.650Z,33.8
2019-01-11T14:56:49.685Z,35.1
2019-01-11T14:58:50.486Z,34.2
2019-01-11T15:00:50.285Z,33.9
2019-01-11T15:02:50.126Z,33.9
2019-01-11T15:04:50.191Z,33.1
2019-01-11T15:06:50.220Z,33.5
2019-01-11T15:08:50.095Z,34.6
2019-01-11T15:10:49.917Z,34.6
2019-01-11T15:12:49.734Z,32.9
2019-01-11T15:14:49.529Z,34.0
2019-01-11T15:16:49.571Z,33.8
2019-01-11T15:18:50.361Z,31.6
2019-01-11T15:20:50.255Z,31.6
2019-01-11T15:22:50.077Z,31.5
2019-01-11T15:24:49.883Z,31.3
2019-01-11T15:26:49.974Z,32.6
2019-01-11T15:28:49.754Z,32.4
2019-01-11T15:30:49.680Z,32.4
2019-01-11T15:32:49.935Z,34.3
2019-01-11T15:34:50.084Z,34.0
2019-01-11T15:36:50.136Z,34.0
2019-01-11T15:38:49.990Z,33.2
2019-01-11T15:40:49.773Z,32.7
2019-01-11T15:42:49.739Z,30.9
2019-01-11T15:44:49.539Z,31.7
2019-01-11T15:46:49.515Z,31.7
2019-01-11T15:48:50.525Z,29.6
2019-01-11T15:50:50.256Z,29.6
2019-01-11T15:52:49.684Z,30.5
2019-01-11T15:54:49.540Z,29.7
2019-01-11T15:56:49.660Z,28.5
2019-01-11T15:58:50.489Z,28.4
2019-01-11T16:00:50.345Z,28.4
2019-01-11T16:02:50.187Z,27.4
2019-01-11T16:04:50.220Z,27.9
2019-01-11T16:06:50.341Z,28.3
2019-01-11T16:08:50.148Z,28.3
2019-01-11T16:10:49.943Z,28.9
2019-01-11T16:12:49.797Z,28.0
2019-01-11T16:14:49.642Z,28.7
2019-01-11T16:16:49.790Z,27.7
2019-01-11T16:18:49.696Z,27.8
2019-01-11T16:20:49.536Z,27.8
2019-01-11T16:22:50.349Z,33.6
2019-01-11T16:24:50.211Z,30.8
2019-01-11T16:26:50.219Z,29.3
2019-01-11T16:28:50.020Z,29.3
2019-01-11T16:30:49.856Z,28.1
2019-01-11T16:32:49.778Z,27.0
2019-01-11T16:34:49.868Z,27.6
2019-01-11T16:36:49.968Z,29.4
2019-01-11T16:38:49.903Z,29.4
2019-01-11T16:40:49.762Z,29.5
2019-01-11T16:42:49.543Z,30.3
2019-01-11T16:44:50.388Z,30.2
2019-01-11T16:46:50.389Z,30.2
2019-01-11T16:48:50.286Z,28.8
2019-01-11T16:50:50.112Z,29.2
2019-01-11T16:52:49.942Z,29.6
2019-01-11T16:54:49.793Z,29.6
2019-01-11T16:56:51.402Z,29.6
2019-01-11T16:58:50.235Z,29.6
2019-01-11T17:00:50.136Z,28.7
2019-01-11T17:02:49.957Z,30.0
2019-01-11T17:04:50.203Z,28.1
2019-01-11T17:06:50.257Z,28.1
2019-01-11T17:08:50.107Z,28.8
2019-01-11T17:10:49.927Z,29.2
2019-01-11T17:12:49.766Z,29.2
2019-01-11T17:14:49.553Z,27.7
2019-01-11T17:16:49.551Z,27.7
2019-01-11T17:18:50.468Z,28.8
2019-01-11T17:20:50.278Z,26.6
2019-01-11T17:22:53.460Z,26.6
2019-01-11T17:24:50.254Z,24.4
2019-01-11T17:26:50.232Z,24.4
2019-01-11T17:28:50.052Z,25.4
2019-01-11T17:30:49.841Z,26.8
2019-01-11T17:32:49.954Z,25.3
2019-01-11T17:34:50.230Z,24.9
2019-01-11T17:36:50.273Z,24.9
2019-01-11T17:38:50.113Z,25.4
2019-01-11T17:40:49.947Z,25.8
2019-01-11T17:42:49.802Z,26.9
2019-01-11T17:44:49.557Z,26.9
2019-01-11T17:46:49.573Z,28.3
2019-01-11T17:48:50.392Z,27.8
2019-01-11T17:50:50.255Z,27.8
2019-01-11T17:52:50.145Z,29.2
2019-01-11T17:54:49.925Z,29.2
2019-01-11T17:56:49.856Z,29.0
2019-01-11T17:58:49.675Z,29.0
2019-01-11T18:00:49.573Z,29.0
2019-01-11T18:02:50.307Z,26.9
2019-01-11T18:04:50.454Z,26.9
2019-01-11T18:06:49.543Z,27.6
2019-01-11T18:08:50.376Z,26.6
2019-01-11T18:10:50.204Z,27.9
2019-01-11T18:12:50.041Z,27.9
2019-01-11T18:14:49.840Z,28.2
2019-01-11T18:16:50.008Z,28.3
2019-01-11T18:18:49.831Z,27.9
2019-01-11T18:20:49.639Z,27.9
2019-01-11T18:22:50.508Z,28.6
2019-01-11T18:24:50.301Z,28.6
2019-01-11T18:26:50.299Z,28.0
2019-01-11T18:28:50.107Z,26.8
2019-01-11T18:30:49.972Z,26.8
2019-01-11T18:32:49.818Z,25.2
2019-01-11T18:34:50.038Z,25.2
2019-01-11T18:36:50.015Z,29.1
2019-01-11T18:38:49.877Z,27.7
2019-01-11T18:40:49.797Z,27.6
2019-01-11T18:42:49.793Z,28.0
2019-01-11T18:44:49.669Z,28.0
2019-01-11T18:46:49.677Z,29.4
2019-01-11T18:48:49.584Z,29.0
2019-01-11T18:50:50.452Z,27.5
2019-01-11T18:52:50.321Z,25.9
2019-01-11T18:54:50.134Z,25.9
2019-01-11T18:56:50.222Z,25.8
2019-01-11T18:58:50.117Z,24.9
2019-01-11T19:00:50.015Z,25.5
2019-01-11T19:02:49.842Z,25.5
2019-01-11T19:04:49.990Z,25.6
2019-01-11T19:06:49.901Z,24.2
2019-01-11T19:08:49.760Z,24.9
2019-01-11T19:10:49.624Z,24.3
2019-01-11T19:12:49.650Z,24.3
2019-01-11T19:14:50.427Z,25.4
2019-01-11T19:16:50.429Z,25.1
2019-01-11T19:18:50.230Z,25.4
2019-01-11T19:20:50.100Z,27.6
2019-01-11T19:22:49.978Z,27.6
2019-01-11T19:24:49.794Z,27.1
2019-01-11T19:26:49.876Z,27.5
2019-01-11T19:28:49.806Z,26.8
2019-01-11T19:30:49.633Z,26.8
2019-01-11T19:32:49.523Z,26.8
2019-01-11T19:34:49.901Z,28.9
2019-01-11T19:36:49.937Z,28.5
2019-01-11T19:38:49.750Z,28.5
2019-01-11T19:40:49.631Z,29.3
2019-01-11T19:42:50.483Z,29.1
2019-01-11T19:44:50.441Z,27.6
2019-01-11T19:46:50.408Z,28.8
2019-01-11T19:48:50.209Z,28.4
2019-01-11T19:50:50.014Z,28.4
2019-01-11T19:52:50.522Z,27.4
2019-01-11T19:54:50.369Z,28.4
2019-01-11T19:56:50.442Z,29.6
2019-01-11T19:58:50.241Z,29.6
2019-01-11T20:00:50.235Z,29.6
2019-01-11T20:02:51.003Z,28.4
2019-01-11T20:04:50.119Z,28.0
2019-01-11T20:06:50.212Z,30.4
2019-01-11T20:08:50.131Z,32.5
2019-01-11T20:10:50.023Z,32.5
2019-01-11T20:12:49.841Z,28.1
2019-01-11T20:14:49.810Z,32.0
2019-01-11T20:16:49.755Z,29.8
2019-01-11T20:18:49.598Z,28.3
2019-01-11T20:20:50.335Z,28.3
2019-01-11T20:22:50.125Z,26.3
2019-01-11T20:24:49.969Z,27.9
2019-01-11T20:26:50.021Z,27.9
2019-01-11T20:28:49.860Z,27.9
2019-01-11T20:30:49.691Z,27.3
2019-01-11T20:32:50.492Z,28.3
2019-01-11T20:34:49.529Z,27.2
2019-01-11T20:36:49.555Z,27.2
2019-01-11T20:38:50.415Z,26.3
2019-01-11T20:40:50.200Z,25.5
2019-01-11T20:42:50.070Z,26.1
2019-01-11T20:44:49.866Z,26.1
2019-01-11T20:46:49.971Z,25.9
2019-01-11T20:48:49.849Z,25.9
2019-01-11T20:50:49.705Z,25.5
2019-01-11T20:52:49.674Z,26.7
2019-01-11T20:54:50.505Z,29.8
2019-01-11T20:56:50.517Z,29.8
2019-01-11T20:58:50.407Z,26.3
2019-01-11T21:00:50.275Z,26.3
2019-01-11T21:02:50.166Z,23.7
2019-01-11T21:04:50.223Z,22.4
2019-01-11T21:06:50.351Z,22.4
2019-01-11T21:08:50.238Z,23.4
2019-01-11T21:10:50.094Z,21.6
2019-01-11T21:12:49.895Z,22.4
2019-01-11T21:14:49.748Z,23.3
2019-01-11T21:16:49.777Z,23.3
2019-01-11T21:18:49.556Z,20.8
2019-01-11T21:20:50.415Z,21.2
2019-01-11T21:22:50.204Z,21.2
2019-01-11T21:24:50.045Z,20.9
2019-01-11T21:26:50.090Z,20.9
2019-01-11T21:28:49.927Z,21.7
2019-01-11T21:30:49.777Z,22.4
2019-01-11T21:32:49.695Z,20.9
2019-01-11T21:34:49.869Z,21.9
2019-01-11T21:36:49.931Z,21.9
2019-01-11T21:38:49.779Z,22.5
2019-01-11T21:40:49.590Z,22.5
2019-01-11T21:42:50.497Z,23.6
2019-01-11T21:44:50.266Z,24.3
2019-01-11T21:46:50.251Z,24.3
2019-01-11T21:48:50.032Z,23.6
2019-01-11T21:50:49.816Z,24.7
2019-01-11T21:52:49.623Z,24.7
2019-01-11T21:54:50.454Z,24.1
2019-01-11T21:56:50.461Z,24.1
2019-01-11T21:58:50.555Z,26.5
2019-01-11T22:00:49.541Z,24.7
2019-01-11T22:02:49.620Z,25.0
2019-01-11T22:04:50.003Z,25.0
2019-01-11T22:06:50.210Z,25.8
2019-01-11T22:08:50.165Z,25.1
2019-01-11T22:10:50.242Z,25.1
2019-01-11T22:12:50.264Z,23.1
2019-01-11T22:14:50.309Z,23.1
2019-01-11T22:16:49.615Z,25.0
2019-01-11T22:18:49.748Z,25.3
2019-01-11T22:20:49.831Z,25.3
2019-01-11T22:22:49.799Z,23.9
2019-01-11T22:24:49.823Z,23.9
2019-01-11T22:26:49.870Z,20.1
2019-01-11T22:28:49.817Z,22.8
2019-01-11T22:30:49.836Z,22.3
2019-01-11T22:32:49.891Z,22.3
2019-01-11T22:34:50.037Z,26.6
2019-01-11T22:36:50.356Z,24.0
2019-01-11T22:38:50.313Z,22.5
2019-01-11T22:40:50.380Z,22.7
2019-01-11T22:42:50.475Z,22.7
2019-01-11T22:44:50.420Z,23.1
2019-01-11T22:46:49.708Z,23.5
2019-01-11T22:48:49.688Z,23.9
2019-01-11T22:50:49.813Z,23.1
2019-01-11T22:52:49.751Z,23.1
2019-01-11T22:54:49.751Z,21.4
2019-01-11T22:56:50.024Z,21.7
2019-01-11T22:58:50.054Z,21.7
2019-01-11T23:00:50.091Z,23.4
2019-01-11T23:02:50.101Z,24.2
2019-01-11T23:04:50.288Z,23.9
2019-01-11T23:06:50.546Z,23.1
2019-01-11T23:08:50.358Z,22.2
2019-01-11T23:10:50.393Z,24.0
2019-01-11T23:12:50.349Z,24.0
2019-01-11T23:14:50.517Z,24.3
2019-01-11T23:16:49.729Z,23.3
2019-01-11T23:18:49.818Z,24.0
2019-01-11T23:20:49.821Z,25.6
2019-01-11T23:22:49.790Z,25.6
2019-01-11T23:24:49.812Z,26.1
2019-01-11T23:26:49.961Z,25.3
2019-01-11T23:28:49.996Z,23.3
2019-01-11T23:30:50.012Z,22.6
2019-01-11T23:32:49.999Z,22.6
2019-01-11T23:34:50.522Z,22.6
2019-01-11T23:36:49.700Z,24.5
2019-01-11T23:38:49.791Z,25.4
2019-01-11T23:40:49.815Z,25.4
2019-01-11T23:42:49.841Z,26.5
2019-01-11T23:44:49.829Z,25.3
2019-01-11T23:46:50.001Z,25.3
2019-01-11T23:48:49.960Z,25.8
2019-01-11T23:50:49.983Z,25.8
2019-01-11T23:52:49.996Z,24.9
2019-01-11T23:54:50.016Z,24.5
2019-01-11T23:56:50.182Z,24.7
2019-01-11T23:58:50.196Z,25.3
